sensor_id;sensor_type;location;lat;lon;timestamp;pressure;altitude;pressure_sealevel;temperature;humidity
40596;BME280;26304;48.794;9.820;2023-07-24T00:00:43;95777.03;;;20.98;57.08
40596;BME280;26304;48.794;9.820;2023-07-24T00:06:25;95750.66;;;20.94;60.23
40596;BME280;26304;48.794;9.820;2023-07-24T00:12:08;95754.22;;;21.08;60.03
40596;BME280;26304;48.794;9.820;2023-07-24T00:17:52;95777.56;;;21.13;59.68
40596;BME280;26304;48.794;9.820;2023-07-24T00:23:34;95787.75;;;21.14;60.11
40596;BME280;26304;48.794;9.820;2023-07-24T00:29:17;95832.16;;;21.23;59.71
40596;BME280;26304;48.794;9.820;2023-07-24T00:35:00;95766.25;;;20.85;61.82
40596;BME280;26304;48.794;9.820;2023-07-24T00:40:43;95782.63;;;21.03;61.98
40596;BME280;26304;48.794;9.820;2023-07-24T00:46:25;95807.59;;;20.99;62.53
40596;BME280;26304;48.794;9.820;2023-07-24T00:52:09;95784.00;;;21.12;63.13
40596;BME280;26304;48.794;9.820;2023-07-24T00:57:52;95785.38;;;21.20;63.38
40596;BME280;26304;48.794;9.820;2023-07-24T01:03:35;95755.13;;;20.97;63.87
40596;BME280;26304;48.794;9.820;2023-07-24T01:09:19;95755.06;;;21.04;63.89
40596;BME280;26304;48.794;9.820;2023-07-24T01:15:07;95738.66;;;21.13;63.10
40596;BME280;26304;48.794;9.820;2023-07-24T01:20:55;95750.16;;;21.03;62.79
40596;BME280;26304;48.794;9.820;2023-07-24T01:26:40;95716.41;;;21.11;62.43
40596;BME280;26304;48.794;9.820;2023-07-24T01:32:22;95705.63;;;20.78;64.12
40596;BME280;26304;48.794;9.820;2023-07-24T01:38:05;95700.00;;;20.99;63.08
40596;BME280;26304;48.794;9.820;2023-07-24T01:43:49;95704.28;;;20.90;62.78
40596;BME280;26304;48.794;9.820;2023-07-24T01:49:31;95698.50;;;20.98;61.71
40596;BME280;26304;48.794;9.820;2023-07-24T01:55:14;95694.84;;;20.92;61.77
40596;BME280;26304;48.794;9.820;2023-07-24T02:00:57;95691.38;;;20.95;61.27
40596;BME280;26304;48.794;9.820;2023-07-24T02:06:40;95697.06;;;20.94;60.35
40596;BME280;26304;48.794;9.820;2023-07-24T02:12:22;95698.50;;;20.98;60.68
40596;BME280;26304;48.794;9.820;2023-07-24T02:18:06;95691.38;;;20.95;60.84
40596;BME280;26304;48.794;9.820;2023-07-24T02:23:48;95690.03;;;20.83;61.67
40596;BME280;26304;48.794;9.820;2023-07-24T02:29:31;95671.47;;;20.91;61.77
40596;BME280;26304;48.794;9.820;2023-07-24T02:35:15;95666.56;;;20.89;61.31
40596;BME280;26304;48.794;9.820;2023-07-24T02:40:59;95652.56;;;20.92;60.85
40596;BME280;26304;48.794;9.820;2023-07-24T02:46:41;95649.16;;;20.92;60.39
40596;BME280;26304;48.794;9.820;2023-07-24T02:52:25;95645.13;;;20.83;60.13
40596;BME280;26304;48.794;9.820;2023-07-24T02:58:07;95629.34;;;20.80;60.66
40596;BME280;26304;48.794;9.820;2023-07-24T03:03:50;95613.22;;;20.74;60.04
40596;BME280;26304;48.794;9.820;2023-07-24T03:09:33;95630.63;;;20.72;60.39
40596;BME280;26304;48.794;9.820;2023-07-24T03:15:16;95608.13;;;20.60;61.99
40596;BME280;26304;48.794;9.820;2023-07-24T03:20:58;95611.81;;;20.70;61.25
40596;BME280;26304;48.794;9.820;2023-07-24T03:26:42;95608.19;;;20.56;62.07
40596;BME280;26304;48.794;9.820;2023-07-24T03:32:25;95603.94;;;20.39;62.83
40596;BME280;26304;48.794;9.820;2023-07-24T03:38:07;95609.53;;;20.17;62.91
40596;BME280;26304;48.794;9.820;2023-07-24T03:43:51;95601.44;;;20.01;62.84
40596;BME280;26304;48.794;9.820;2023-07-24T03:49:33;95588.97;;;20.05;62.58
40596;BME280;26304;48.794;9.820;2023-07-24T03:55:16;95602.88;;;20.09;62.16
40596;BME280;26304;48.794;9.820;2023-07-24T04:00:59;95595.63;;;19.86;63.11
40596;BME280;26304;48.794;9.820;2023-07-24T04:06:42;95626.09;;;19.90;63.23
40596;BME280;26304;48.794;9.820;2023-07-24T04:12:24;95600.78;;;19.96;64.32
40596;BME280;26304;48.794;9.820;2023-07-24T04:18:08;95584.47;;;20.29;62.69
40596;BME280;26304;48.794;9.820;2023-07-24T04:23:50;95582.50;;;20.09;63.25
40596;BME280;26304;48.794;9.820;2023-07-24T04:29:33;95577.91;;;20.13;63.20
40596;BME280;26304;48.794;9.820;2023-07-24T04:35:17;95568.16;;;20.34;62.54
40596;BME280;26304;48.794;9.820;2023-07-24T04:41:00;95557.06;;;20.70;60.98
40596;BME280;26304;48.794;9.820;2023-07-24T04:46:42;95560.59;;;20.83;60.30
40596;BME280;26304;48.794;9.820;2023-07-24T04:52:26;95551.28;;;20.99;59.64
40596;BME280;26304;48.794;9.820;2023-07-24T04:58:08;95545.44;;;21.08;59.40
40596;BME280;26304;48.794;9.820;2023-07-24T05:03:51;95538.34;;;21.04;59.33
40596;BME280;26304;48.794;9.820;2023-07-24T05:09:35;95547.56;;;21.16;58.62
40596;BME280;26304;48.794;9.820;2023-07-24T05:15:17;95545.66;;;21.17;58.85
40596;BME280;26304;48.794;9.820;2023-07-24T05:20:59;95542.28;;;21.36;58.87
40596;BME280;26304;48.794;9.820;2023-07-24T05:26:43;95543.56;;;21.28;58.86
40596;BME280;26304;48.794;9.820;2023-07-24T05:32:26;95538.25;;;21.28;58.81
40596;BME280;26304;48.794;9.820;2023-07-24T05:38:08;95530.81;;;21.23;59.09
40596;BME280;26304;48.794;9.820;2023-07-24T05:43:52;95531.34;;;21.34;58.53
40596;BME280;26304;48.794;9.820;2023-07-24T05:49:34;95544.66;;;21.31;58.37
40596;BME280;26304;48.794;9.820;2023-07-24T05:55:17;95543.56;;;21.28;58.48
40596;BME280;26304;48.794;9.820;2023-07-24T06:01:00;95537.13;;;21.29;58.72
40596;BME280;26304;48.794;9.820;2023-07-24T06:06:43;95561.25;;;21.31;58.35
40596;BME280;26304;48.794;9.820;2023-07-24T06:12:25;95566.72;;;21.40;57.75
40596;BME280;26304;48.794;9.820;2023-07-24T06:18:09;95573.53;;;21.41;57.96
40596;BME280;26304;48.794;9.820;2023-07-24T06:23:52;95591.16;;;21.48;57.83
40596;BME280;26304;48.794;9.820;2023-07-24T06:29:34;95593.75;;;21.52;57.68
40596;BME280;26304;48.794;9.820;2023-07-24T06:35:18;95582.34;;;21.55;57.65
40596;BME280;26304;48.794;9.820;2023-07-24T06:41:01;95582.75;;;21.53;57.64
40596;BME280;26304;48.794;9.820;2023-07-24T06:46:44;95585.31;;;21.57;57.43
40596;BME280;26304;48.794;9.820;2023-07-24T06:52:27;95565.81;;;21.51;58.00
40596;BME280;26304;48.794;9.820;2023-07-24T06:58:10;95559.75;;;21.50;57.80
40596;BME280;26304;48.794;9.820;2023-07-24T07:03:52;95546.91;;;21.52;58.17
40596;BME280;26304;48.794;9.820;2023-07-24T07:09:36;95541.16;;;21.54;57.53
40596;BME280;26304;48.794;9.820;2023-07-24T07:15:18;95555.50;;;21.56;57.53
40596;BME280;26304;48.794;9.820;2023-07-24T07:21:01;95570.13;;;21.61;58.28
40596;BME280;26304;48.794;9.820;2023-07-24T07:26:44;95574.72;;;21.57;57.07
40596;BME280;26304;48.794;9.820;2023-07-24T07:32:27;95564.16;;;21.57;57.37
40596;BME280;26304;48.794;9.820;2023-07-24T07:38:09;95565.66;;;21.58;57.24
40596;BME280;26304;48.794;9.820;2023-07-24T07:43:53;95566.41;;;21.58;57.48
40596;BME280;26304;48.794;9.820;2023-07-24T07:49:35;95582.22;;;21.62;57.40
40596;BME280;26304;48.794;9.820;2023-07-24T07:55:18;95589.75;;;21.64;57.33
40596;BME280;26304;48.794;9.820;2023-07-24T08:01:04;95608.50;;;21.69;57.24
40596;BME280;26304;48.794;9.820;2023-07-24T08:06:47;95601.66;;;21.72;57.70
40596;BME280;26304;48.794;9.820;2023-07-24T08:12:29;95617.59;;;21.68;57.51
40596;BME280;26304;48.794;9.820;2023-07-24T08:18:13;95616.78;;;21.71;57.46
40596;BME280;26304;48.794;9.820;2023-07-24T08:23:57;95608.84;;;21.71;57.57
40596;BME280;26304;48.794;9.820;2023-07-24T08:29:41;95605.03;;;21.72;57.66
40596;BME280;26304;48.794;9.820;2023-07-24T08:35:25;95596.38;;;21.72;57.46
40596;BME280;26304;48.794;9.820;2023-07-24T08:41:08;95591.31;;;21.77;57.34
40596;BME280;26304;48.794;9.820;2023-07-24T08:46:52;95580.75;;;21.77;56.98
40596;BME280;26304;48.794;9.820;2023-07-24T08:52:36;95599.94;;;21.82;57.04
40596;BME280;26304;48.794;9.820;2023-07-24T08:58:18;95602.84;;;21.87;56.93
40596;BME280;26304;48.794;9.820;2023-07-24T09:04:01;95599.53;;;21.83;57.06
40596;BME280;26304;48.794;9.820;2023-07-24T09:09:46;95581.44;;;21.82;57.21
40596;BME280;26304;48.794;9.820;2023-07-24T09:15:39;95578.78;;;21.82;57.10
40596;BME280;26304;48.794;9.820;2023-07-24T09:21:29;95573.00;;;21.87;57.11
40596;BME280;26304;48.794;9.820;2023-07-24T09:27:13;95562.75;;;21.89;57.12
40596;BME280;26304;48.794;9.820;2023-07-24T09:32:55;95554.47;;;21.87;56.93
40596;BME280;26304;48.794;9.820;2023-07-24T09:38:39;95551.09;;;21.86;57.04
40596;BME280;26304;48.794;9.820;2023-07-24T09:44:25;95543.16;;;21.86;57.14
40596;BME280;26304;48.794;9.820;2023-07-24T09:50:09;95543.44;;;22.08;56.63
40596;BME280;26304;48.794;9.820;2023-07-24T09:55:56;95532.25;;;22.01;56.86
40596;BME280;26304;48.794;9.820;2023-07-24T10:01:40;95551.84;;;22.03;57.14
40596;BME280;26304;48.794;9.820;2023-07-24T10:07:24;95564.25;;;22.06;57.09
40596;BME280;26304;48.794;9.820;2023-07-24T10:13:07;95587.84;;;22.17;57.70
40596;BME280;26304;48.794;9.820;2023-07-24T10:18:53;95600.66;;;22.19;57.71
40596;BME280;26304;48.794;9.820;2023-07-24T10:24:35;95600.75;;;22.15;58.16
40596;BME280;26304;48.794;9.820;2023-07-24T10:30:28;95629.19;;;22.11;58.94
40596;BME280;26304;48.794;9.820;2023-07-24T10:36:12;95631.91;;;22.07;59.64
40596;BME280;26304;48.794;9.820;2023-07-24T10:42:05;95636.47;;;22.07;59.74
40596;BME280;26304;48.794;9.820;2023-07-24T10:47:47;95630.28;;;22.13;58.83
40596;BME280;26304;48.794;9.820;2023-07-24T10:53:34;95643.50;;;21.97;63.62
40596;BME280;26304;48.794;9.820;2023-07-24T10:59:17;95654.38;;;21.83;66.59
40596;BME280;26304;48.794;9.820;2023-07-24T11:05:00;95669.41;;;21.86;68.36
40596;BME280;26304;48.794;9.820;2023-07-24T11:10:47;95672.66;;;21.93;69.25
40596;BME280;26304;48.794;9.820;2023-07-24T11:16:30;95674.84;;;21.58;70.03
40596;BME280;26304;48.794;9.820;2023-07-24T11:22:14;95682.44;;;21.76;69.56
40596;BME280;26304;48.794;9.820;2023-07-24T11:27:58;95685.22;;;21.69;69.48
40596;BME280;26304;48.794;9.820;2023-07-24T11:33:41;95675.94;;;21.81;69.05
40596;BME280;26304;48.794;9.820;2023-07-24T11:39:24;95670.03;;;21.73;69.68
40596;BME280;26304;48.794;9.820;2023-07-24T11:45:08;95623.69;;;21.85;69.35
40596;BME280;26304;48.794;9.820;2023-07-24T11:50:53;95625.59;;;21.85;68.99
40596;BME280;26304;48.794;9.820;2023-07-24T11:56:35;95593.84;;;22.01;68.87
40596;BME280;26304;48.794;9.820;2023-07-24T12:02:19;95539.38;;;22.04;68.42
40596;BME280;26304;48.794;9.820;2023-07-24T12:08:02;95512.63;;;21.98;69.76
40596;BME280;26304;48.794;9.820;2023-07-24T12:13:44;95505.44;;;22.15;69.27
40596;BME280;26304;48.794;9.820;2023-07-24T12:19:28;95512.47;;;22.22;69.19
40596;BME280;26304;48.794;9.820;2023-07-24T12:25:10;95519.75;;;22.51;67.72
40596;BME280;26304;48.794;9.820;2023-07-24T12:30:53;95502.94;;;22.57;67.47
40596;BME280;26304;48.794;9.820;2023-07-24T12:36:37;95533.47;;;22.62;67.53
40596;BME280;26304;48.794;9.820;2023-07-24T12:42:20;95525.84;;;22.64;66.97
40596;BME280;26304;48.794;9.820;2023-07-24T12:48:02;95536.78;;;22.66;65.79
40596;BME280;26304;48.794;9.820;2023-07-24T12:53:46;95539.75;;;22.68;64.88
40596;BME280;26304;48.794;9.820;2023-07-24T12:59:29;95530.66;;;22.69;64.25
40596;BME280;26304;48.794;9.820;2023-07-24T13:05:11;95515.41;;;22.73;64.08
40596;BME280;26304;48.794;9.820;2023-07-24T13:10:55;95507.78;;;22.75;64.17
40596;BME280;26304;48.794;9.820;2023-07-24T13:16:38;95511.50;;;22.78;63.71
40596;BME280;26304;48.794;9.820;2023-07-24T13:22:20;95511.31;;;22.85;63.64
40596;BME280;26304;48.794;9.820;2023-07-24T13:28:04;95500.72;;;22.85;62.97
40596;BME280;26304;48.794;9.820;2023-07-24T13:33:46;95481.75;;;22.87;62.93
40596;BME280;26304;48.794;9.820;2023-07-24T13:39:29;95479.72;;;22.91;62.80
40596;BME280;26304;48.794;9.820;2023-07-24T13:45:13;95475.09;;;22.95;62.57
40596;BME280;26304;48.794;9.820;2023-07-24T13:50:56;95475.28;;;23.00;62.10
40596;BME280;26304;48.794;9.820;2023-07-24T13:56:39;95460.47;;;23.03;62.21
40596;BME280;26304;48.794;9.820;2023-07-24T14:02:22;95433.13;;;23.06;61.90
40596;BME280;26304;48.794;9.820;2023-07-24T14:08:05;95419.03;;;23.09;62.02
40596;BME280;26304;48.794;9.820;2023-07-24T14:13:48;95418.22;;;23.12;61.93
40596;BME280;26304;48.794;9.820;2023-07-24T14:19:31;95409.19;;;23.10;61.79
40596;BME280;26304;48.794;9.820;2023-07-24T14:25:14;95402.28;;;23.12;61.72
40596;BME280;26304;48.794;9.820;2023-07-24T14:30:56;95401.53;;;23.12;61.91
40596;BME280;26304;48.794;9.820;2023-07-24T14:36:40;95410.88;;;23.16;61.32
40596;BME280;26304;48.794;9.820;2023-07-24T14:42:22;95390.84;;;23.15;61.98
40596;BME280;26304;48.794;9.820;2023-07-24T14:48:06;95393.81;;;23.17;61.83
40596;BME280;26304;48.794;9.820;2023-07-24T14:53:51;95391.16;;;23.17;62.20
40596;BME280;26304;48.794;9.820;2023-07-24T14:59:33;95388.47;;;22.92;62.37
40596;BME280;26304;48.794;9.820;2023-07-24T15:05:16;95380.09;;;22.80;62.61
40596;BME280;26304;48.794;9.820;2023-07-24T15:11:00;95368.22;;;22.98;61.99
40596;BME280;26304;48.794;9.820;2023-07-24T15:16:42;95375.63;;;22.90;62.93
40596;BME280;26304;48.794;9.820;2023-07-24T15:22:26;95390.81;;;22.90;62.02
40596;BME280;26304;48.794;9.820;2023-07-24T15:28:10;95384.41;;;22.74;62.71
40596;BME280;26304;48.794;9.820;2023-07-24T15:33:52;95399.25;;;22.84;62.93
40596;BME280;26304;48.794;9.820;2023-07-24T15:39:35;95405.41;;;22.81;62.71
40596;BME280;26304;48.794;9.820;2023-07-24T15:45:19;95426.66;;;22.65;63.04
40596;BME280;26304;48.794;9.820;2023-07-24T15:51:02;95406.88;;;22.70;62.39
40596;BME280;26304;48.794;9.820;2023-07-24T15:56:44;95405.16;;;22.63;62.55
40596;BME280;26304;48.794;9.820;2023-07-24T16:02:28;95396.91;;;22.61;62.63
40596;BME280;26304;48.794;9.820;2023-07-24T16:08:10;95394.34;;;22.70;62.51
40596;BME280;26304;48.794;9.820;2023-07-24T16:13:53;95394.56;;;22.63;62.74
40596;BME280;26304;48.794;9.820;2023-07-24T16:19:36;95399.09;;;22.62;62.59
40596;BME280;26304;48.794;9.820;2023-07-24T16:25:20;95377.84;;;22.79;62.16
40596;BME280;26304;48.794;9.820;2023-07-24T16:31:02;95392.16;;;22.81;61.79
40596;BME280;26304;48.794;9.820;2023-07-24T16:36:46;95401.91;;;22.84;61.75
40596;BME280;26304;48.794;9.820;2023-07-24T16:42:28;95402.81;;;22.65;61.79
40596;BME280;26304;48.794;9.820;2023-07-24T16:48:11;95393.06;;;22.62;61.90
40596;BME280;26304;48.794;9.820;2023-07-24T16:53:54;95367.88;;;22.70;61.46
40596;BME280;26304;48.794;9.820;2023-07-24T16:59:37;95358.13;;;22.93;61.02
40596;BME280;26304;48.794;9.820;2023-07-24T17:05:19;95351.25;;;22.95;60.60
40596;BME280;26304;48.794;9.820;2023-07-24T17:11:03;95367.78;;;22.87;60.77
40596;BME280;26304;48.794;9.820;2023-07-24T17:16:45;95373.19;;;22.83;61.25
40596;BME280;26304;48.794;9.820;2023-07-24T17:22:28;95366.00;;;22.83;61.49
40596;BME280;26304;48.794;9.820;2023-07-24T17:28:11;95388.03;;;22.80;61.50
40596;BME280;26304;48.794;9.820;2023-07-24T17:33:54;95390.47;;;23.00;61.28
40596;BME280;26304;48.794;9.820;2023-07-24T17:39:36;95393.75;;;22.92;61.91
40596;BME280;26304;48.794;9.820;2023-07-24T17:45:20;95404.41;;;23.17;61.54
40596;BME280;26304;48.794;9.820;2023-07-24T17:51:03;95426.97;;;22.96;61.95
40596;BME280;26304;48.794;9.820;2023-07-24T17:56:45;95419.41;;;22.82;63.22
40596;BME280;26304;48.794;9.820;2023-07-24T18:02:29;95440.56;;;22.69;63.27
40596;BME280;26304;48.794;9.820;2023-07-24T18:08:12;95437.69;;;22.63;64.26
40596;BME280;26304;48.794;9.820;2023-07-24T18:13:54;95446.16;;;22.58;65.30
40596;BME280;26304;48.794;9.820;2023-07-24T18:19:38;95427.66;;;22.71;65.06
40596;BME280;26304;48.794;9.820;2023-07-24T18:25:20;95434.63;;;22.65;65.66
40596;BME280;26304;48.794;9.820;2023-07-24T18:31:03;95451.50;;;22.71;65.55
40596;BME280;26304;48.794;9.820;2023-07-24T18:36:46;95468.63;;;22.66;64.89
40596;BME280;26304;48.794;9.820;2023-07-24T18:42:29;95459.44;;;22.71;64.88
40596;BME280;26304;48.794;9.820;2023-07-24T18:48:11;95470.97;;;22.64;65.08
40596;BME280;26304;48.794;9.820;2023-07-24T18:53:56;95491.94;;;22.88;64.27
40596;BME280;26304;48.794;9.820;2023-07-24T18:59:38;95505.66;;;22.83;64.95
40596;BME280;26304;48.794;9.820;2023-07-24T19:05:20;95515.59;;;22.66;65.53
40596;BME280;26304;48.794;9.820;2023-07-24T19:11:04;95506.66;;;22.60;66.36
40596;BME280;26304;48.794;9.820;2023-07-24T19:16:47;95505.44;;;22.48;66.81
40596;BME280;26304;48.794;9.820;2023-07-24T19:22:29;95512.63;;;22.47;65.57
40596;BME280;26304;48.794;9.820;2023-07-24T19:28:13;95507.78;;;22.13;66.58
40596;BME280;26304;48.794;9.820;2023-07-24T19:33:56;95516.28;;;21.88;67.30
40596;BME280;26304;48.794;9.820;2023-07-24T19:39:38;95520.91;;;21.84;67.10
40596;BME280;26304;48.794;9.820;2023-07-24T19:45:22;95526.53;;;22.02;66.70
40596;BME280;26304;48.794;9.820;2023-07-24T19:51:07;95529.34;;;21.95;67.13
40596;BME280;26304;48.794;9.820;2023-07-24T19:56:49;95535.63;;;21.85;67.13
40596;BME280;26304;48.794;9.820;2023-07-24T20:02:33;95544.47;;;21.78;67.17
40596;BME280;26304;48.794;9.820;2023-07-24T20:08:16;95535.25;;;21.66;67.22
40596;BME280;26304;48.794;9.820;2023-07-24T20:13:58;95518.56;;;21.69;66.89
40596;BME280;26304;48.794;9.820;2023-07-24T20:19:42;95513.66;;;21.51;67.28
40596;BME280;26304;48.794;9.820;2023-07-24T20:25:24;95521.38;;;21.42;67.48
40596;BME280;26304;48.794;9.820;2023-07-24T20:31:07;95516.00;;;21.46;67.38
40596;BME280;26304;48.794;9.820;2023-07-24T20:36:50;95533.38;;;21.47;67.26
40596;BME280;26304;48.794;9.820;2023-07-24T20:42:33;95529.72;;;21.40;66.88
40596;BME280;26304;48.794;9.820;2023-07-24T20:48:15;95535.81;;;21.37;66.88
40596;BME280;26304;48.794;9.820;2023-07-24T20:53:59;95535.16;;;21.33;66.91
40596;BME280;26304;48.794;9.820;2023-07-24T20:59:41;95544.50;;;21.18;67.24
40596;BME280;26304;48.794;9.820;2023-07-24T21:05:24;95543.66;;;21.04;67.38
40596;BME280;26304;48.794;9.820;2023-07-24T21:11:08;95550.72;;;21.08;67.09
40596;BME280;26304;48.794;9.820;2023-07-24T21:16:50;95546.13;;;21.12;66.66
40596;BME280;26304;48.794;9.820;2023-07-24T21:22:32;95555.44;;;21.00;66.48
40596;BME280;26304;48.794;9.820;2023-07-24T21:28:16;95561.72;;;20.86;66.89
40596;BME280;26304;48.794;9.820;2023-07-24T21:33:59;95560.91;;;20.89;66.25
40596;BME280;26304;48.794;9.820;2023-07-24T21:39:41;95563.66;;;20.82;66.06
40596;BME280;26304;48.794;9.820;2023-07-24T21:45:25;95556.25;;;20.73;66.24
40596;BME280;26304;48.794;9.820;2023-07-24T21:51:07;95565.72;;;20.71;65.53
40596;BME280;26304;48.794;9.820;2023-07-24T21:56:50;95562.97;;;20.78;65.14
40596;BME280;26304;48.794;9.820;2023-07-24T22:02:34;95566.53;;;20.67;65.52
40596;BME280;26304;48.794;9.820;2023-07-24T22:08:19;95568.59;;;20.56;65.57
40596;BME280;26304;48.794;9.820;2023-07-24T22:14:02;95563.84;;;20.71;64.59
40596;BME280;26304;48.794;9.820;2023-07-24T22:19:46;95557.56;;;20.61;64.29
40596;BME280;26304;48.794;9.820;2023-07-24T22:25:28;95554.56;;;20.59;64.46
40596;BME280;26304;48.794;9.820;2023-07-24T22:31:11;95547.19;;;20.50;64.78
40596;BME280;26304;48.794;9.820;2023-07-24T22:36:55;95550.34;;;20.42;65.02
40596;BME280;26304;48.794;9.820;2023-07-24T22:42:37;95555.44;;;20.53;64.63
40596;BME280;26304;48.794;9.820;2023-07-24T22:48:20;95553.03;;;20.38;65.21
40596;BME280;26304;48.794;9.820;2023-07-24T22:54:04;95535.44;;;20.31;65.55
40596;BME280;26304;48.794;9.820;2023-07-24T22:59:46;95534.78;;;20.24;65.89
40596;BME280;26304;48.794;9.820;2023-07-24T23:05:28;95526.16;;;20.20;66.50
40596;BME280;26304;48.794;9.820;2023-07-24T23:11:13;95520.50;;;20.21;66.08
40596;BME280;26304;48.794;9.820;2023-07-24T23:16:55;95522.94;;;20.08;66.90
40596;BME280;26304;48.794;9.820;2023-07-24T23:22:38;95522.91;;;20.12;66.38
40596;BME280;26304;48.794;9.820;2023-07-24T23:28:22;95509.13;;;20.01;66.70
40596;BME280;26304;48.794;9.820;2023-07-24T23:34:04;95507.41;;;19.90;67.12
40596;BME280;26304;48.794;9.820;2023-07-24T23:39:47;95502.81;;;19.94;66.74
40596;BME280;26304;48.794;9.820;2023-07-24T23:45:32;95498.69;;;19.93;66.60
40596;BME280;26304;48.794;9.820;2023-07-24T23:51:16;95497.63;;;19.87;66.58
40596;BME280;26304;48.794;9.820;2023-07-24T23:56:59;95502.19;;;19.87;66.93
